< < Back
Terminal Aerodrome Forecast


Current Version              Previous Versions:   1  2  3  4  5  6  7  8  9  

Terminal Aerodrome Forecast

431
FTUS42 KJAX 032320
TAFSSI
TAF
KSSI 032320Z 0400/0424 24010KT P6SM SCT050 BKN250
     FM040200 25008KT P6SM VCSH SCT030 BKN050
     FM040500 26006KT 5SM -SHRA VCTS SCT015 OVC035CB
      TEMPO 0407/0411 3SM TSRA SCT015 OVC025CB
     FM041200 29010KT P6SM SCT025 OVC050=



Latest METAR

581
SAUS70 KWBC 040000 RRN
MTRSSI
METAR KSSI 032353Z AUTO 28003KT 10SM CLR 27/19 A2981 RMK AO2 SLP097
T02720194 10311 20272 51007


USA.gov is the U.S. government's official web portal to all federal, state and local government web resources and services.